sensor_id;sensor_type;location;lat;lon;timestamp;P1;durP1;ratioP1;P2;durP2;ratioP2
14603;SDS011;7388;51.078;13.740;2023-05-21T00:01:41;28.77;;;21.13;;
14603;SDS011;7388;51.078;13.740;2023-05-21T00:04:07;25.10;;;20.73;;
14603;SDS011;7388;51.078;13.740;2023-05-21T00:06:36;26.43;;;22.63;;
14603;SDS011;7388;51.078;13.740;2023-05-21T00:09:02;24.83;;;22.05;;
14603;SDS011;7388;51.078;13.740;2023-05-21T00:11:29;24.33;;;19.92;;
14603;SDS011;7388;51.078;13.740;2023-05-21T00:13:54;26.73;;;22.03;;
14603;SDS011;7388;51.078;13.740;2023-05-21T00:16:20;24.83;;;21.43;;
14603;SDS011;7388;51.078;13.740;2023-05-21T00:18:47;26.42;;;21.83;;
14603;SDS011;7388;51.078;13.740;2023-05-21T00:21:16;24.77;;;21.42;;
14603;SDS011;7388;51.078;13.740;2023-05-21T00:23:45;23.75;;;21.17;;
14603;SDS011;7388;51.078;13.740;2023-05-21T00:26:12;24.63;;;20.52;;
14603;SDS011;7388;51.078;13.740;2023-05-21T00:28:37;24.80;;;22.23;;
14603;SDS011;7388;51.078;13.740;2023-05-21T00:31:03;27.27;;;23.33;;
14603;SDS011;7388;51.078;13.740;2023-05-21T00:33:30;28.40;;;22.25;;
14603;SDS011;7388;51.078;13.740;2023-05-21T00:35:55;23.50;;;20.97;;
14603;SDS011;7388;51.078;13.740;2023-05-21T00:38:22;27.70;;;22.47;;
14603;SDS011;7388;51.078;13.740;2023-05-21T00:40:48;25.77;;;22.48;;
14603;SDS011;7388;51.078;13.740;2023-05-21T00:43:14;25.17;;;22.48;;
14603;SDS011;7388;51.078;13.740;2023-05-21T00:45:40;24.17;;;21.07;;
14603;SDS011;7388;51.078;13.740;2023-05-21T00:48:11;21.98;;;19.48;;
14603;SDS011;7388;51.078;13.740;2023-05-21T00:50:39;28.25;;;21.33;;
14603;SDS011;7388;51.078;13.740;2023-05-21T00:53:05;23.88;;;21.42;;
14603;SDS011;7388;51.078;13.740;2023-05-21T00:55:35;24.38;;;21.30;;
14603;SDS011;7388;51.078;13.740;2023-05-21T00:58:01;24.95;;;21.60;;
14603;SDS011;7388;51.078;13.740;2023-05-21T01:00:29;23.75;;;20.85;;
14603;SDS011;7388;51.078;13.740;2023-05-21T01:02:57;24.92;;;22.25;;
14603;SDS011;7388;51.078;13.740;2023-05-21T01:05:23;26.47;;;23.13;;
14603;SDS011;7388;51.078;13.740;2023-05-21T01:07:49;23.50;;;21.10;;
14603;SDS011;7388;51.078;13.740;2023-05-21T01:10:15;29.20;;;23.27;;
14603;SDS011;7388;51.078;13.740;2023-05-21T01:12:41;29.17;;;23.85;;
14603;SDS011;7388;51.078;13.740;2023-05-21T01:15:09;26.25;;;22.63;;
14603;SDS011;7388;51.078;13.740;2023-05-21T01:17:35;25.90;;;22.92;;
14603;SDS011;7388;51.078;13.740;2023-05-21T01:20:03;27.48;;;23.88;;
14603;SDS011;7388;51.078;13.740;2023-05-21T01:22:41;29.67;;;23.67;;
14603;SDS011;7388;51.078;13.740;2023-05-21T01:25:13;24.05;;;21.23;;
14603;SDS011;7388;51.078;13.740;2023-05-21T01:27:39;29.40;;;22.90;;
14603;SDS011;7388;51.078;13.740;2023-05-21T01:30:05;25.27;;;22.30;;
14603;SDS011;7388;51.078;13.740;2023-05-21T01:32:33;26.90;;;23.20;;
14603;SDS011;7388;51.078;13.740;2023-05-21T01:35:13;25.38;;;21.90;;
14603;SDS011;7388;51.078;13.740;2023-05-21T01:38:15;24.58;;;22.05;;
14603;SDS011;7388;51.078;13.740;2023-05-21T01:43:23;25.80;;;22.48;;
14603;SDS011;7388;51.078;13.740;2023-05-21T01:45:53;25.40;;;22.17;;
14603;SDS011;7388;51.078;13.740;2023-05-21T01:48:21;26.98;;;23.98;;
14603;SDS011;7388;51.078;13.740;2023-05-21T01:50:50;28.00;;;20.70;;
14603;SDS011;7388;51.078;13.740;2023-05-21T01:53:19;24.17;;;20.67;;
14603;SDS011;7388;51.078;13.740;2023-05-21T01:55:46;23.52;;;20.95;;
14603;SDS011;7388;51.078;13.740;2023-05-21T01:58:12;24.08;;;20.90;;
14603;SDS011;7388;51.078;13.740;2023-05-21T02:00:40;22.65;;;20.10;;
14603;SDS011;7388;51.078;13.740;2023-05-21T02:03:06;26.08;;;22.45;;
14603;SDS011;7388;51.078;13.740;2023-05-21T02:05:32;25.05;;;20.58;;
14603;SDS011;7388;51.078;13.740;2023-05-21T02:07:59;25.70;;;22.38;;
14603;SDS011;7388;51.078;13.740;2023-05-21T02:10:25;24.65;;;20.70;;
14603;SDS011;7388;51.078;13.740;2023-05-21T02:12:51;27.10;;;22.17;;
14603;SDS011;7388;51.078;13.740;2023-05-21T02:15:17;26.40;;;22.17;;
14603;SDS011;7388;51.078;13.740;2023-05-21T02:17:43;26.63;;;23.23;;
14603;SDS011;7388;51.078;13.740;2023-05-21T02:20:10;24.65;;;21.15;;
14603;SDS011;7388;51.078;13.740;2023-05-21T02:22:41;25.15;;;21.88;;
14603;SDS011;7388;51.078;13.740;2023-05-21T02:25:08;27.67;;;24.23;;
14603;SDS011;7388;51.078;13.740;2023-05-21T02:27:36;24.88;;;21.73;;
14603;SDS011;7388;51.078;13.740;2023-05-21T02:30:03;24.42;;;20.75;;
14603;SDS011;7388;51.078;13.740;2023-05-21T02:32:30;24.48;;;20.27;;
14603;SDS011;7388;51.078;13.740;2023-05-21T02:34:56;27.52;;;24.20;;
14603;SDS011;7388;51.078;13.740;2023-05-21T02:37:24;22.90;;;20.02;;
14603;SDS011;7388;51.078;13.740;2023-05-21T02:39:52;24.73;;;22.13;;
14603;SDS011;7388;51.078;13.740;2023-05-21T02:42:18;23.27;;;20.77;;
14603;SDS011;7388;51.078;13.740;2023-05-21T02:44:45;26.05;;;20.95;;
14603;SDS011;7388;51.078;13.740;2023-05-21T02:47:11;26.43;;;22.53;;
14603;SDS011;7388;51.078;13.740;2023-05-21T02:49:37;31.63;;;22.97;;
14603;SDS011;7388;51.078;13.740;2023-05-21T02:52:03;22.67;;;20.10;;
14603;SDS011;7388;51.078;13.740;2023-05-21T02:54:29;26.73;;;22.75;;
14603;SDS011;7388;51.078;13.740;2023-05-21T02:56:55;24.77;;;21.83;;
14603;SDS011;7388;51.078;13.740;2023-05-21T02:59:21;22.77;;;19.65;;
14603;SDS011;7388;51.078;13.740;2023-05-21T03:01:48;22.15;;;19.83;;
14603;SDS011;7388;51.078;13.740;2023-05-21T03:04:13;26.87;;;21.23;;
14603;SDS011;7388;51.078;13.740;2023-05-21T03:06:41;24.70;;;22.08;;
14603;SDS011;7388;51.078;13.740;2023-05-21T03:09:07;25.50;;;22.00;;
14603;SDS011;7388;51.078;13.740;2023-05-21T03:11:33;25.57;;;20.53;;
14603;SDS011;7388;51.078;13.740;2023-05-21T03:13:58;28.40;;;22.23;;
14603;SDS011;7388;51.078;13.740;2023-05-21T03:16:24;25.47;;;22.77;;
14603;SDS011;7388;51.078;13.740;2023-05-21T03:18:50;27.37;;;22.70;;
14603;SDS011;7388;51.078;13.740;2023-05-21T03:21:16;27.03;;;22.10;;
14603;SDS011;7388;51.078;13.740;2023-05-21T03:23:41;31.77;;;24.03;;
14603;SDS011;7388;51.078;13.740;2023-05-21T03:26:07;47.97;;;23.90;;
14603;SDS011;7388;51.078;13.740;2023-05-21T03:28:33;24.37;;;21.37;;
14603;SDS011;7388;51.078;13.740;2023-05-21T03:31:00;23.40;;;21.00;;
14603;SDS011;7388;51.078;13.740;2023-05-21T03:33:25;24.90;;;21.57;;
14603;SDS011;7388;51.078;13.740;2023-05-21T03:35:51;24.80;;;22.13;;
14603;SDS011;7388;51.078;13.740;2023-05-21T03:38:18;24.85;;;22.15;;
14603;SDS011;7388;51.078;13.740;2023-05-21T03:40:44;25.43;;;22.17;;
14603;SDS011;7388;51.078;13.740;2023-05-21T03:43:09;23.40;;;20.07;;
14603;SDS011;7388;51.078;13.740;2023-05-21T03:45:35;22.00;;;19.53;;
14603;SDS011;7388;51.078;13.740;2023-05-21T03:48:01;23.97;;;21.07;;
14603;SDS011;7388;51.078;13.740;2023-05-21T03:50:27;26.77;;;20.50;;
14603;SDS011;7388;51.078;13.740;2023-05-21T03:52:52;23.83;;;21.43;;
14603;SDS011;7388;51.078;13.740;2023-05-21T03:55:18;25.83;;;21.77;;
14603;SDS011;7388;51.078;13.740;2023-05-21T03:57:44;27.73;;;20.50;;
14603;SDS011;7388;51.078;13.740;2023-05-21T04:00:10;24.40;;;21.13;;
14603;SDS011;7388;51.078;13.740;2023-05-21T04:02:36;24.67;;;21.90;;
14603;SDS011;7388;51.078;13.740;2023-05-21T04:05:01;25.87;;;21.73;;
14603;SDS011;7388;51.078;13.740;2023-05-21T04:07:27;26.03;;;21.17;;
14603;SDS011;7388;51.078;13.740;2023-05-21T04:09:54;26.63;;;22.92;;
14603;SDS011;7388;51.078;13.740;2023-05-21T04:12:20;25.48;;;22.65;;
14603;SDS011;7388;51.078;13.740;2023-05-21T04:14:46;26.70;;;22.08;;
14603;SDS011;7388;51.078;13.740;2023-05-21T04:17:12;24.15;;;20.77;;
14603;SDS011;7388;51.078;13.740;2023-05-21T04:19:38;30.87;;;23.43;;
14603;SDS011;7388;51.078;13.740;2023-05-21T04:22:04;26.30;;;22.47;;
14603;SDS011;7388;51.078;13.740;2023-05-21T04:24:29;26.40;;;21.87;;
14603;SDS011;7388;51.078;13.740;2023-05-21T04:26:56;27.35;;;23.27;;
14603;SDS011;7388;51.078;13.740;2023-05-21T04:29:26;26.42;;;20.92;;
14603;SDS011;7388;51.078;13.740;2023-05-21T04:31:54;23.52;;;21.02;;
14603;SDS011;7388;51.078;13.740;2023-05-21T04:34:20;26.70;;;23.80;;
14603;SDS011;7388;51.078;13.740;2023-05-21T04:36:46;28.60;;;24.10;;
14603;SDS011;7388;51.078;13.740;2023-05-21T04:39:12;26.33;;;23.02;;
14603;SDS011;7388;51.078;13.740;2023-05-21T04:41:38;24.45;;;21.77;;
14603;SDS011;7388;51.078;13.740;2023-05-21T04:44:07;26.57;;;20.70;;
14603;SDS011;7388;51.078;13.740;2023-05-21T04:46:33;29.27;;;24.75;;
14603;SDS011;7388;51.078;13.740;2023-05-21T04:49:00;26.40;;;22.65;;
14603;SDS011;7388;51.078;13.740;2023-05-21T04:51:27;26.33;;;22.50;;
14603;SDS011;7388;51.078;13.740;2023-05-21T04:53:53;24.80;;;21.52;;
14603;SDS011;7388;51.078;13.740;2023-05-21T04:56:20;25.15;;;22.45;;
14603;SDS011;7388;51.078;13.740;2023-05-21T04:58:50;26.75;;;22.05;;
14603;SDS011;7388;51.078;13.740;2023-05-21T05:01:18;25.98;;;23.13;;
14603;SDS011;7388;51.078;13.740;2023-05-21T05:03:46;28.00;;;23.50;;
14603;SDS011;7388;51.078;13.740;2023-05-21T05:06:12;24.23;;;20.98;;
14603;SDS011;7388;51.078;13.740;2023-05-21T05:08:38;24.60;;;21.57;;
14603;SDS011;7388;51.078;13.740;2023-05-21T05:11:04;26.08;;;23.17;;
14603;SDS011;7388;51.078;13.740;2023-05-21T05:13:30;24.37;;;21.87;;
14603;SDS011;7388;51.078;13.740;2023-05-21T05:15:56;24.60;;;22.00;;
14603;SDS011;7388;51.078;13.740;2023-05-21T05:18:21;23.60;;;20.30;;
14603;SDS011;7388;51.078;13.740;2023-05-21T05:20:47;23.83;;;21.17;;
14603;SDS011;7388;51.078;13.740;2023-05-21T05:23:13;25.10;;;22.00;;
14603;SDS011;7388;51.078;13.740;2023-05-21T05:25:39;23.70;;;21.13;;
14603;SDS011;7388;51.078;13.740;2023-05-21T05:28:05;24.73;;;22.10;;
14603;SDS011;7388;51.078;13.740;2023-05-21T05:30:30;24.67;;;21.73;;
14603;SDS011;7388;51.078;13.740;2023-05-21T05:32:56;22.63;;;19.90;;
14603;SDS011;7388;51.078;13.740;2023-05-21T05:35:22;25.23;;;20.10;;
14603;SDS011;7388;51.078;13.740;2023-05-21T05:37:47;23.03;;;20.53;;
14603;SDS011;7388;51.078;13.740;2023-05-21T05:40:13;20.57;;;18.37;;
14603;SDS011;7388;51.078;13.740;2023-05-21T05:42:39;22.73;;;19.97;;
14603;SDS011;7388;51.078;13.740;2023-05-21T05:45:05;23.63;;;20.90;;
14603;SDS011;7388;51.078;13.740;2023-05-21T05:47:31;24.23;;;21.20;;
14603;SDS011;7388;51.078;13.740;2023-05-21T05:49:57;21.57;;;19.27;;
14603;SDS011;7388;51.078;13.740;2023-05-21T05:52:22;20.60;;;17.87;;
14603;SDS011;7388;51.078;13.740;2023-05-21T05:54:48;21.13;;;18.93;;
14603;SDS011;7388;51.078;13.740;2023-05-21T05:57:14;22.70;;;20.30;;
14603;SDS011;7388;51.078;13.740;2023-05-21T05:59:40;23.83;;;21.30;;
14603;SDS011;7388;51.078;13.740;2023-05-21T06:02:05;20.93;;;18.90;;
14603;SDS011;7388;51.078;13.740;2023-05-21T06:04:31;22.10;;;19.90;;
14603;SDS011;7388;51.078;13.740;2023-05-21T06:06:57;22.27;;;19.87;;
14603;SDS011;7388;51.078;13.740;2023-05-21T06:09:23;21.00;;;18.80;;
14603;SDS011;7388;51.078;13.740;2023-05-21T06:11:49;20.93;;;18.83;;
14603;SDS011;7388;51.078;13.740;2023-05-21T06:14:15;22.47;;;20.33;;
14603;SDS011;7388;51.078;13.740;2023-05-21T06:16:41;22.33;;;20.03;;
14603;SDS011;7388;51.078;13.740;2023-05-21T06:19:07;20.33;;;18.33;;
14603;SDS011;7388;51.078;13.740;2023-05-21T06:21:32;24.73;;;19.10;;
14603;SDS011;7388;51.078;13.740;2023-05-21T06:23:58;20.03;;;17.90;;
14603;SDS011;7388;51.078;13.740;2023-05-21T06:26:24;19.87;;;17.20;;
14603;SDS011;7388;51.078;13.740;2023-05-21T06:28:50;20.20;;;18.13;;
14603;SDS011;7388;51.078;13.740;2023-05-21T06:31:16;20.80;;;18.57;;
14603;SDS011;7388;51.078;13.740;2023-05-21T06:33:42;24.10;;;19.23;;
14603;SDS011;7388;51.078;13.740;2023-05-21T06:36:07;19.03;;;17.07;;
14603;SDS011;7388;51.078;13.740;2023-05-21T06:38:33;20.30;;;18.20;;
14603;SDS011;7388;51.078;13.740;2023-05-21T06:40:59;21.77;;;17.93;;
14603;SDS011;7388;51.078;13.740;2023-05-21T06:43:27;19.70;;;17.70;;
14603;SDS011;7388;51.078;13.740;2023-05-21T06:45:53;21.73;;;19.60;;
14603;SDS011;7388;51.078;13.740;2023-05-21T06:48:19;19.20;;;17.20;;
14603;SDS011;7388;51.078;13.740;2023-05-21T06:50:45;18.47;;;16.50;;
14603;SDS011;7388;51.078;13.740;2023-05-21T06:53:11;19.30;;;17.20;;
14603;SDS011;7388;51.078;13.740;2023-05-21T06:55:40;21.03;;;18.87;;
14603;SDS011;7388;51.078;13.740;2023-05-21T06:58:09;19.90;;;17.80;;
14603;SDS011;7388;51.078;13.740;2023-05-21T07:00:35;19.03;;;17.23;;
14603;SDS011;7388;51.078;13.740;2023-05-21T07:03:01;19.33;;;17.37;;
14603;SDS011;7388;51.078;13.740;2023-05-21T07:05:27;19.37;;;17.40;;
14603;SDS011;7388;51.078;13.740;2023-05-21T07:07:53;19.63;;;17.67;;
14603;SDS011;7388;51.078;13.740;2023-05-21T07:10:18;20.10;;;18.07;;
14603;SDS011;7388;51.078;13.740;2023-05-21T07:12:44;20.10;;;18.20;;
14603;SDS011;7388;51.078;13.740;2023-05-21T07:15:10;18.93;;;17.00;;
14603;SDS011;7388;51.078;13.740;2023-05-21T07:17:36;18.57;;;16.90;;
14603;SDS011;7388;51.078;13.740;2023-05-21T07:20:02;19.60;;;17.17;;
14603;SDS011;7388;51.078;13.740;2023-05-21T07:22:36;20.57;;;18.47;;
14603;SDS011;7388;51.078;13.740;2023-05-21T07:25:03;20.07;;;17.77;;
14603;SDS011;7388;51.078;13.740;2023-05-21T07:27:29;20.87;;;18.83;;
14603;SDS011;7388;51.078;13.740;2023-05-21T07:29:55;20.80;;;18.60;;
14603;SDS011;7388;51.078;13.740;2023-05-21T07:32:21;17.60;;;15.80;;
14603;SDS011;7388;51.078;13.740;2023-05-21T07:34:47;18.70;;;16.80;;
14603;SDS011;7388;51.078;13.740;2023-05-21T07:37:13;19.37;;;17.27;;
14603;SDS011;7388;51.078;13.740;2023-05-21T07:39:39;19.60;;;17.73;;
14603;SDS011;7388;51.078;13.740;2023-05-21T07:42:04;17.30;;;15.60;;
14603;SDS011;7388;51.078;13.740;2023-05-21T07:44:30;19.03;;;16.87;;
14603;SDS011;7388;51.078;13.740;2023-05-21T07:46:56;18.20;;;16.40;;
14603;SDS011;7388;51.078;13.740;2023-05-21T07:49:31;18.87;;;17.07;;
14603;SDS011;7388;51.078;13.740;2023-05-21T07:51:57;19.30;;;17.33;;
14603;SDS011;7388;51.078;13.740;2023-05-21T07:54:22;23.97;;;17.60;;
14603;SDS011;7388;51.078;13.740;2023-05-21T07:56:48;20.17;;;17.90;;
14603;SDS011;7388;51.078;13.740;2023-05-21T07:59:15;18.77;;;16.97;;
14603;SDS011;7388;51.078;13.740;2023-05-21T08:01:41;18.77;;;16.80;;
14603;SDS011;7388;51.078;13.740;2023-05-21T08:04:07;18.13;;;16.33;;
14603;SDS011;7388;51.078;13.740;2023-05-21T08:06:33;17.50;;;16.00;;
14603;SDS011;7388;51.078;13.740;2023-05-21T08:09:01;19.40;;;16.03;;
14603;SDS011;7388;51.078;13.740;2023-05-21T08:11:27;19.47;;;17.30;;
14603;SDS011;7388;51.078;13.740;2023-05-21T08:13:53;17.33;;;15.60;;
14603;SDS011;7388;51.078;13.740;2023-05-21T08:16:20;18.73;;;16.50;;
14603;SDS011;7388;51.078;13.740;2023-05-21T08:18:47;17.27;;;15.63;;
14603;SDS011;7388;51.078;13.740;2023-05-21T08:21:14;17.57;;;15.97;;
14603;SDS011;7388;51.078;13.740;2023-05-21T08:23:41;19.67;;;17.60;;
14603;SDS011;7388;51.078;13.740;2023-05-21T08:26:07;17.40;;;15.83;;
14603;SDS011;7388;51.078;13.740;2023-05-21T08:28:32;19.30;;;17.20;;
14603;SDS011;7388;51.078;13.740;2023-05-21T08:30:59;18.50;;;16.90;;
14603;SDS011;7388;51.078;13.740;2023-05-21T08:33:26;18.13;;;15.93;;
14603;SDS011;7388;51.078;13.740;2023-05-21T08:35:52;17.90;;;16.23;;
14603;SDS011;7388;51.078;13.740;2023-05-21T08:38:17;17.20;;;15.50;;
14603;SDS011;7388;51.078;13.740;2023-05-21T08:40:44;20.00;;;17.73;;
14603;SDS011;7388;51.078;13.740;2023-05-21T08:43:13;16.50;;;14.80;;
14603;SDS011;7388;51.078;13.740;2023-05-21T08:45:41;17.43;;;15.43;;
14603;SDS011;7388;51.078;13.740;2023-05-21T08:48:09;18.60;;;16.67;;
14603;SDS011;7388;51.078;13.740;2023-05-21T08:50:38;15.70;;;14.20;;
14603;SDS011;7388;51.078;13.740;2023-05-21T08:53:05;15.93;;;14.53;;
14603;SDS011;7388;51.078;13.740;2023-05-21T08:55:31;15.47;;;14.03;;
14603;SDS011;7388;51.078;13.740;2023-05-21T08:57:58;18.40;;;16.40;;
14603;SDS011;7388;51.078;13.740;2023-05-21T09:00:25;17.77;;;16.07;;
14603;SDS011;7388;51.078;13.740;2023-05-21T09:02:50;16.70;;;15.07;;
14603;SDS011;7388;51.078;13.740;2023-05-21T09:05:18;19.33;;;15.83;;
14603;SDS011;7388;51.078;13.740;2023-05-21T09:10:13;15.27;;;13.87;;
14603;SDS011;7388;51.078;13.740;2023-05-21T09:12:42;18.03;;;15.83;;
14603;SDS011;7388;51.078;13.740;2023-05-21T09:15:08;19.20;;;16.07;;
14603;SDS011;7388;51.078;13.740;2023-05-21T09:17:34;17.10;;;15.43;;
14603;SDS011;7388;51.078;13.740;2023-05-21T09:20:13;16.67;;;14.80;;
14603;SDS011;7388;51.078;13.740;2023-05-21T09:22:44;16.10;;;14.50;;
14603;SDS011;7388;51.078;13.740;2023-05-21T09:25:11;19.93;;;15.83;;
14603;SDS011;7388;51.078;13.740;2023-05-21T09:27:41;16.77;;;15.00;;
14603;SDS011;7388;51.078;13.740;2023-05-21T09:30:08;15.77;;;14.27;;
14603;SDS011;7388;51.078;13.740;2023-05-21T09:32:36;15.93;;;14.27;;
14603;SDS011;7388;51.078;13.740;2023-05-21T09:35:12;16.60;;;15.10;;
14603;SDS011;7388;51.078;13.740;2023-05-21T09:37:41;15.53;;;14.07;;
14603;SDS011;7388;51.078;13.740;2023-05-21T09:40:30;15.47;;;14.17;;
14603;SDS011;7388;51.078;13.740;2023-05-21T09:42:55;19.27;;;14.23;;
14603;SDS011;7388;51.078;13.740;2023-05-21T09:45:24;15.50;;;14.00;;
14603;SDS011;7388;51.078;13.740;2023-05-21T09:47:52;16.83;;;14.80;;
14603;SDS011;7388;51.078;13.740;2023-05-21T09:50:20;16.00;;;14.40;;
14603;SDS011;7388;51.078;13.740;2023-05-21T09:52:48;16.37;;;14.70;;
14603;SDS011;7388;51.078;13.740;2023-05-21T09:55:17;15.30;;;13.90;;
14603;SDS011;7388;51.078;13.740;2023-05-21T09:57:44;14.60;;;13.10;;
14603;SDS011;7388;51.078;13.740;2023-05-21T10:00:17;15.70;;;14.10;;
14603;SDS011;7388;51.078;13.740;2023-05-21T10:02:49;14.13;;;12.93;;
14603;SDS011;7388;51.078;13.740;2023-05-21T10:05:18;14.63;;;13.13;;
14603;SDS011;7388;51.078;13.740;2023-05-21T10:07:49;13.97;;;12.40;;
14603;SDS011;7388;51.078;13.740;2023-05-21T10:10:20;15.07;;;13.63;;
14603;SDS011;7388;51.078;13.740;2023-05-21T10:12:51;15.57;;;14.17;;
14603;SDS011;7388;51.078;13.740;2023-05-21T10:15:27;14.03;;;12.50;;
14603;SDS011;7388;51.078;13.740;2023-05-21T10:17:57;15.70;;;14.07;;
14603;SDS011;7388;51.078;13.740;2023-05-21T10:20:23;15.13;;;13.57;;
14603;SDS011;7388;51.078;13.740;2023-05-21T10:22:50;14.43;;;13.03;;
14603;SDS011;7388;51.078;13.740;2023-05-21T10:25:17;14.13;;;12.80;;
14603;SDS011;7388;51.078;13.740;2023-05-21T10:27:44;16.60;;;14.97;;
14603;SDS011;7388;51.078;13.740;2023-05-21T10:30:11;14.97;;;13.57;;
14603;SDS011;7388;51.078;13.740;2023-05-21T10:32:36;17.30;;;15.07;;
14603;SDS011;7388;51.078;13.740;2023-05-21T10:35:04;18.30;;;16.60;;
14603;SDS011;7388;51.078;13.740;2023-05-21T10:37:32;19.33;;;17.53;;
14603;SDS011;7388;51.078;13.740;2023-05-21T10:39:59;20.20;;;18.20;;
14603;SDS011;7388;51.078;13.740;2023-05-21T10:50:57;15.03;;;13.63;;
14603;SDS011;7388;51.078;13.740;2023-05-21T11:01:28;13.57;;;12.13;;
14603;SDS011;7388;51.078;13.740;2023-05-21T11:03:57;11.03;;;10.10;;
14603;SDS011;7388;51.078;13.740;2023-05-21T11:06:24;10.10;;;9.20;;
14603;SDS011;7388;51.078;13.740;2023-05-21T11:08:51;11.97;;;10.87;;
14603;SDS011;7388;51.078;13.740;2023-05-21T11:11:38;10.83;;;9.67;;
14603;SDS011;7388;51.078;13.740;2023-05-21T11:16:55;9.13;;;8.33;;
14603;SDS011;7388;51.078;13.740;2023-05-21T11:19:28;10.50;;;9.00;;
14603;SDS011;7388;51.078;13.740;2023-05-21T11:21:58;9.07;;;8.20;;
14603;SDS011;7388;51.078;13.740;2023-05-21T11:24:24;9.00;;;8.10;;
14603;SDS011;7388;51.078;13.740;2023-05-21T11:29:35;9.87;;;8.43;;
14603;SDS011;7388;51.078;13.740;2023-05-21T11:32:04;9.90;;;8.90;;
14603;SDS011;7388;51.078;13.740;2023-05-21T11:34:36;11.47;;;9.70;;
14603;SDS011;7388;51.078;13.740;2023-05-21T11:39:42;11.83;;;10.63;;
14603;SDS011;7388;51.078;13.740;2023-05-21T11:42:11;10.90;;;9.80;;
14603;SDS011;7388;51.078;13.740;2023-05-21T11:44:41;10.43;;;9.50;;
14603;SDS011;7388;51.078;13.740;2023-05-21T11:47:08;10.00;;;9.10;;
14603;SDS011;7388;51.078;13.740;2023-05-21T11:49:35;10.53;;;8.27;;
14603;SDS011;7388;51.078;13.740;2023-05-21T11:52:02;11.33;;;10.33;;
14603;SDS011;7388;51.078;13.740;2023-05-21T11:54:32;22.10;;;10.60;;
14603;SDS011;7388;51.078;13.740;2023-05-21T11:57:06;10.17;;;9.27;;
14603;SDS011;7388;51.078;13.740;2023-05-21T11:59:32;10.97;;;9.87;;
14603;SDS011;7388;51.078;13.740;2023-05-21T12:01:58;10.77;;;9.83;;
14603;SDS011;7388;51.078;13.740;2023-05-21T12:04:32;12.37;;;11.30;;
14603;SDS011;7388;51.078;13.740;2023-05-21T12:07:02;11.70;;;10.50;;
14603;SDS011;7388;51.078;13.740;2023-05-21T12:09:37;11.17;;;10.03;;
14603;SDS011;7388;51.078;13.740;2023-05-21T12:12:10;13.00;;;11.80;;
14603;SDS011;7388;51.078;13.740;2023-05-21T12:14:42;12.40;;;11.20;;
14603;SDS011;7388;51.078;13.740;2023-05-21T12:17:14;11.87;;;10.67;;
14603;SDS011;7388;51.078;13.740;2023-05-21T12:19:41;12.10;;;10.90;;
14603;SDS011;7388;51.078;13.740;2023-05-21T12:22:07;13.40;;;12.10;;
14603;SDS011;7388;51.078;13.740;2023-05-21T12:24:34;12.70;;;11.50;;
14603;SDS011;7388;51.078;13.740;2023-05-21T12:27:01;12.03;;;10.93;;
14603;SDS011;7388;51.078;13.740;2023-05-21T12:29:33;13.77;;;12.30;;
14603;SDS011;7388;51.078;13.740;2023-05-21T12:32:01;15.00;;;12.07;;
14603;SDS011;7388;51.078;13.740;2023-05-21T12:37:19;13.63;;;12.23;;
14603;SDS011;7388;51.078;13.740;2023-05-21T12:39:50;13.40;;;12.10;;
14603;SDS011;7388;51.078;13.740;2023-05-21T12:42:27;14.37;;;12.90;;
14603;SDS011;7388;51.078;13.740;2023-05-21T12:44:54;13.90;;;12.60;;
14603;SDS011;7388;51.078;13.740;2023-05-21T12:47:24;14.20;;;11.20;;
14603;SDS011;7388;51.078;13.740;2023-05-21T12:49:57;13.33;;;12.03;;
14603;SDS011;7388;51.078;13.740;2023-05-21T12:52:24;13.40;;;12.10;;
14603;SDS011;7388;51.078;13.740;2023-05-21T12:54:51;14.00;;;12.67;;
14603;SDS011;7388;51.078;13.740;2023-05-21T12:57:22;21.43;;;13.50;;
14603;SDS011;7388;51.078;13.740;2023-05-21T13:02:24;14.50;;;12.90;;
14603;SDS011;7388;51.078;13.740;2023-05-21T13:04:55;14.53;;;13.20;;
14603;SDS011;7388;51.078;13.740;2023-05-21T13:07:22;26.07;;;13.10;;
14603;SDS011;7388;51.078;13.740;2023-05-21T13:09:48;14.77;;;13.23;;
14603;SDS011;7388;51.078;13.740;2023-05-21T13:12:17;15.97;;;14.47;;
14603;SDS011;7388;51.078;13.740;2023-05-21T13:14:47;15.73;;;14.23;;
14603;SDS011;7388;51.078;13.740;2023-05-21T13:17:14;22.57;;;13.87;;
14603;SDS011;7388;51.078;13.740;2023-05-21T13:19:40;14.73;;;13.23;;
14603;SDS011;7388;51.078;13.740;2023-05-21T13:22:06;15.50;;;13.70;;
14603;SDS011;7388;51.078;13.740;2023-05-21T13:24:31;16.67;;;14.87;;
14603;SDS011;7388;51.078;13.740;2023-05-21T13:26:57;14.90;;;13.40;;
14603;SDS011;7388;51.078;13.740;2023-05-21T13:29:23;14.53;;;13.10;;
14603;SDS011;7388;51.078;13.740;2023-05-21T13:31:49;14.13;;;12.37;;
14603;SDS011;7388;51.078;13.740;2023-05-21T13:34:15;15.33;;;14.03;;
14603;SDS011;7388;51.078;13.740;2023-05-21T13:36:40;13.60;;;12.40;;
14603;SDS011;7388;51.078;13.740;2023-05-21T13:39:06;16.60;;;14.00;;
14603;SDS011;7388;51.078;13.740;2023-05-21T13:41:32;13.33;;;12.20;;
14603;SDS011;7388;51.078;13.740;2023-05-21T13:43:58;14.17;;;12.93;;
14603;SDS011;7388;51.078;13.740;2023-05-21T13:46:24;14.90;;;13.50;;
14603;SDS011;7388;51.078;13.740;2023-05-21T13:48:50;15.80;;;13.57;;
14603;SDS011;7388;51.078;13.740;2023-05-21T13:51:15;17.60;;;16.00;;
14603;SDS011;7388;51.078;13.740;2023-05-21T13:53:41;14.37;;;12.90;;
14603;SDS011;7388;51.078;13.740;2023-05-21T13:56:07;13.77;;;12.40;;
14603;SDS011;7388;51.078;13.740;2023-05-21T13:58:33;12.20;;;11.10;;
14603;SDS011;7388;51.078;13.740;2023-05-21T14:01:02;10.50;;;9.53;;
14603;SDS011;7388;51.078;13.740;2023-05-21T14:03:28;13.20;;;8.37;;
14603;SDS011;7388;51.078;13.740;2023-05-21T14:05:54;9.50;;;8.60;;
14603;SDS011;7388;51.078;13.740;2023-05-21T14:08:21;14.30;;;10.60;;
14603;SDS011;7388;51.078;13.740;2023-05-21T14:10:47;14.27;;;9.63;;
14603;SDS011;7388;51.078;13.740;2023-05-21T14:13:13;35.43;;;30.13;;
14603;SDS011;7388;51.078;13.740;2023-05-21T14:15:41;10.77;;;9.13;;
14603;SDS011;7388;51.078;13.740;2023-05-21T14:18:07;13.80;;;10.27;;
14603;SDS011;7388;51.078;13.740;2023-05-21T14:20:36;14.20;;;9.90;;
14603;SDS011;7388;51.078;13.740;2023-05-21T14:23:02;9.90;;;9.00;;
14603;SDS011;7388;51.078;13.740;2023-05-21T14:25:28;12.00;;;10.10;;
14603;SDS011;7388;51.078;13.740;2023-05-21T14:27:54;11.20;;;9.20;;
14603;SDS011;7388;51.078;13.740;2023-05-21T14:30:20;11.40;;;10.20;;
14603;SDS011;7388;51.078;13.740;2023-05-21T14:32:46;12.83;;;10.70;;
14603;SDS011;7388;51.078;13.740;2023-05-21T14:35:12;13.90;;;9.63;;
14603;SDS011;7388;51.078;13.740;2023-05-21T14:37:37;10.17;;;9.17;;
14603;SDS011;7388;51.078;13.740;2023-05-21T14:40:03;10.67;;;9.57;;
14603;SDS011;7388;51.078;13.740;2023-05-21T14:42:32;11.70;;;10.53;;
14603;SDS011;7388;51.078;13.740;2023-05-21T14:44:58;11.43;;;9.90;;
14603;SDS011;7388;51.078;13.740;2023-05-21T14:47:24;9.47;;;8.57;;
14603;SDS011;7388;51.078;13.740;2023-05-21T14:49:50;10.07;;;9.17;;
14603;SDS011;7388;51.078;13.740;2023-05-21T14:52:15;11.23;;;10.00;;
14603;SDS011;7388;51.078;13.740;2023-05-21T14:54:41;12.00;;;9.50;;
14603;SDS011;7388;51.078;13.740;2023-05-21T14:57:07;10.43;;;9.33;;
14603;SDS011;7388;51.078;13.740;2023-05-21T14:59:33;10.63;;;9.53;;